createdAt,value
2022-08-26T00:01:30.783Z,100639.97
2022-08-26T00:03:58.701Z,100640.31
2022-08-26T00:06:25.893Z,100644.88
2022-08-26T00:08:52.533Z,100637.44
2022-08-26T00:11:26.750Z,100632.78
2022-08-26T00:13:54.696Z,100626.56
2022-08-26T00:16:22.602Z,100616.16
2022-08-26T00:18:50.069Z,100614.84
2022-08-26T00:21:16.687Z,100619.25
2022-08-26T00:23:43.737Z,100621.75
2022-08-26T00:26:11.653Z,100628.69
2022-08-26T00:28:40.336Z,100623.94
2022-08-26T00:31:07.524Z,100633.97
2022-08-26T00:33:38.237Z,100637.31
2022-08-26T00:36:05.942Z,100638.13
2022-08-26T00:38:33.130Z,100632.28
2022-08-26T00:41:00.406Z,100638.63
2022-08-26T00:43:27.579Z,100637.19
2022-08-26T00:46:01.137Z,100628.22
2022-08-26T00:48:32.421Z,100630.72
2022-08-26T00:51:06.709Z,100622.34
2022-08-26T00:53:39.440Z,100616.25
2022-08-26T00:56:19.293Z,100615.66
2022-08-26T00:58:47.985Z,100615.22
2022-08-26T01:01:15.638Z,100615.09
2022-08-26T01:03:44.845Z,100617.13
2022-08-26T01:06:13.120Z,100617.50
2022-08-26T01:08:40.131Z,100609.75
2022-08-26T01:11:08.189Z,100610.47
2022-08-26T01:13:36.606Z,100613.47
2022-08-26T01:16:04.041Z,100618.38
2022-08-26T01:18:31.559Z,100621.50
2022-08-26T01:21:21.623Z,100615.13
2022-08-26T01:23:51.859Z,100611.44
2022-08-26T01:26:35.935Z,100607.09
2022-08-26T01:29:05.446Z,100602.34
2022-08-26T01:31:38.672Z,100595.41
2022-08-26T01:34:05.638Z,100596.38
2022-08-26T01:36:32.629Z,100589.66
2022-08-26T01:38:59.450Z,100588.47
2022-08-26T01:41:29.058Z,100583.09
2022-08-26T01:43:57.112Z,100596.13
2022-08-26T01:46:26.699Z,100593.63
2022-08-26T01:48:56.802Z,100590.28
2022-08-26T01:51:26.455Z,100581.44
2022-08-26T01:53:53.446Z,100581.78
2022-08-26T01:56:22.194Z,100581.28
2022-08-26T01:58:55.366Z,100587.63
2022-08-26T02:01:29.168Z,100590.13
2022-08-26T02:03:55.840Z,100591.09
2022-08-26T02:06:23.672Z,100590.75
2022-08-26T02:08:54.726Z,100579.75
2022-08-26T02:11:21.882Z,100589.06
2022-08-26T02:13:56.658Z,100588.59
2022-08-26T02:16:26.350Z,100588.22
2022-08-26T02:18:53.840Z,100588.09
2022-08-26T02:21:20.496Z,100578.91
2022-08-26T02:23:47.638Z,100583.94
2022-08-26T02:26:21.101Z,100583.69
2022-08-26T02:28:57.261Z,100580.25
2022-08-26T02:31:24.223Z,100585.72
2022-08-26T02:33:51.101Z,100586.34
2022-08-26T02:36:28.715Z,100574.00
2022-08-26T02:38:55.547Z,100582.25
2022-08-26T02:41:23.089Z,100567.91
2022-08-26T02:43:49.824Z,100566.00
2022-08-26T02:46:21.452Z,100563.75
2022-08-26T02:48:54.535Z,100561.00
2022-08-26T02:51:21.159Z,100560.75
2022-08-26T02:53:48.760Z,100569.13
2022-08-26T02:56:15.581Z,100558.97
2022-08-26T02:58:42.479Z,100570.78
2022-08-26T03:01:26.204Z,100567.09
2022-08-26T03:03:54.311Z,100554.44
2022-08-26T03:06:21.102Z,100554.91
2022-08-26T03:08:47.963Z,100555.88
2022-08-26T03:11:15.086Z,100566.63
2022-08-26T03:13:42.075Z,100556.94
2022-08-26T03:16:08.890Z,100560.16
2022-08-26T03:18:36.445Z,100552.16
2022-08-26T03:21:15.190Z,100549.03
2022-08-26T03:23:43.275Z,100550.59
2022-08-26T03:26:11.679Z,100549.41
2022-08-26T03:29:02.256Z,100551.69
2022-08-26T03:31:29.701Z,100542.09
2022-08-26T03:33:59.584Z,100545.09
2022-08-26T03:36:26.793Z,100547.75
2022-08-26T03:38:53.657Z,100534.72
2022-08-26T03:41:21.376Z,100537.47
2022-08-26T03:43:50.741Z,100554.19
2022-08-26T03:46:20.961Z,100552.50
2022-08-26T03:48:47.830Z,100549.16
2022-08-26T03:51:19.380Z,100550.59
2022-08-26T03:53:46.959Z,100547.59
2022-08-26T03:56:15.113Z,100539.97
2022-08-26T03:58:42.754Z,100547.13
2022-08-26T04:01:10.216Z,100540.56
2022-08-26T04:03:55.331Z,100532.31
2022-08-26T04:06:22.021Z,100535.91
2022-08-26T04:08:48.699Z,100543.06
2022-08-26T04:11:20.672Z,100536.28
2022-08-26T04:13:48.704Z,100539.59
2022-08-26T04:16:17.891Z,100539.16
2022-08-26T04:18:46.963Z,100534.47
2022-08-26T04:21:13.679Z,100534.13
2022-08-26T04:23:47.817Z,100544.16
2022-08-26T04:26:15.758Z,100543.44
2022-08-26T04:28:42.803Z,100540.09
2022-08-26T04:31:14.738Z,100542.47
2022-08-26T04:33:42.771Z,100539.72
2022-08-26T04:36:11.825Z,100544.00
2022-08-26T04:38:38.939Z,100544.41
2022-08-26T04:41:14.878Z,100545.22
2022-08-26T04:43:42.743Z,100543.91
2022-08-26T04:46:10.231Z,100546.78
2022-08-26T04:48:41.151Z,100544.75
2022-08-26T04:51:09.691Z,100542.34
2022-08-26T04:53:36.414Z,100537.94
2022-08-26T04:56:03.925Z,100537.47
2022-08-26T04:58:32.370Z,100544.16
2022-08-26T05:00:59.342Z,100543.09
2022-08-26T05:03:30.312Z,100547.50
2022-08-26T05:05:58.168Z,100549.28
2022-08-26T05:08:25.363Z,100542.72
2022-08-26T05:10:56.412Z,100545.84
2022-08-26T05:13:26.729Z,100552.53
2022-08-26T05:16:01.557Z,100547.75
2022-08-26T05:18:30.194Z,100547.97
2022-08-26T05:21:10.344Z,100551.69
2022-08-26T05:23:40.293Z,100535.44
2022-08-26T05:26:08.663Z,100549.63
2022-08-26T05:28:36.789Z,100559.25
2022-08-26T05:31:16.147Z,100560.44
2022-08-26T05:33:44.739Z,100566.63
2022-08-26T05:36:15.796Z,100563.88
2022-08-26T05:38:44.008Z,100564.75
2022-08-26T05:41:18.071Z,100563.28
2022-08-26T05:43:45.564Z,100566.25
2022-08-26T05:46:12.773Z,100559.28
2022-08-26T05:48:44.237Z,100566.53
2022-08-26T05:51:11.938Z,100570.53
2022-08-26T05:53:40.894Z,100574.53
2022-08-26T05:56:12.082Z,100576.69
2022-08-26T05:58:39.780Z,100578.41
2022-08-26T06:01:12.245Z,100584.56
2022-08-26T06:03:41.960Z,100584.09
2022-08-26T06:06:11.466Z,100584.69
2022-08-26T06:08:39.089Z,100594.91
2022-08-26T06:11:18.285Z,100595.50
2022-08-26T06:13:46.185Z,100595.81
2022-08-26T06:16:17.829Z,100602.22
2022-08-26T06:18:46.285Z,100604.13
2022-08-26T06:21:27.062Z,100603.84
2022-08-26T06:24:14.900Z,100604.66
2022-08-26T06:26:43.326Z,100607.44
2022-08-26T06:29:15.460Z,100615.91
2022-08-26T06:31:52.557Z,100609.13
2022-08-26T06:34:19.450Z,100609.63
2022-08-26T06:36:47.289Z,100613.38
2022-08-26T06:39:16.383Z,100614.88
2022-08-26T06:41:45.045Z,100613.56
2022-08-26T06:44:14.843Z,100609.13
2022-08-26T06:46:42.878Z,100617.94
2022-08-26T06:49:12.653Z,100617.00
2022-08-26T06:51:40.632Z,100622.66
2022-08-26T06:54:08.279Z,100607.53
2022-08-26T06:56:39.204Z,100616.22
2022-08-26T06:59:07.614Z,100615.03
2022-08-26T07:01:38.321Z,100618.19
2022-08-26T07:04:10.496Z,100617.22
2022-08-26T07:06:40.545Z,100621.22
2022-08-26T07:09:09.949Z,100624.41
2022-08-26T07:11:38.363Z,100625.28
2022-08-26T07:14:05.931Z,100632.09
2022-08-26T07:16:33.236Z,100625.66
2022-08-26T07:19:01.118Z,100622.66
2022-08-26T07:21:30.079Z,100617.06
2022-08-26T07:24:01.244Z,100625.75
2022-08-26T07:26:30.778Z,100616.34
2022-08-26T07:28:59.418Z,100627.63
2022-08-26T07:31:28.343Z,100629.69
2022-08-26T07:33:57.063Z,100632.34
2022-08-26T07:36:24.351Z,100629.72
2022-08-26T07:38:52.384Z,100624.59
2022-08-26T07:41:25.303Z,100626.44
2022-08-26T07:43:53.398Z,100623.69
2022-08-26T07:46:27.279Z,100628.88
2022-08-26T07:48:56.665Z,100632.94
2022-08-26T07:51:23.482Z,100626.03
2022-08-26T07:53:52.728Z,100636.25
2022-08-26T07:56:20.525Z,100619.56
2022-08-26T07:58:51.298Z,100630.53
2022-08-26T08:01:20.269Z,100630.53
2022-08-26T08:03:48.066Z,100634.97
2022-08-26T08:06:18.562Z,100630.97
2022-08-26T08:08:45.145Z,100629.75
2022-08-26T08:11:12.216Z,100637.00
2022-08-26T08:13:39.707Z,100625.31
2022-08-26T08:16:07.710Z,100624.09
2022-08-26T08:18:40.143Z,100619.94
2022-08-26T08:21:24.125Z,100628.75
2022-08-26T08:23:52.562Z,100623.41
2022-08-26T08:26:20.008Z,100616.44
2022-08-26T08:28:48.020Z,100621.09
2022-08-26T08:34:21.599Z,100627.69
2022-08-26T08:36:48.960Z,100623.38
2022-08-26T08:39:16.799Z,100614.47
2022-08-26T08:42:04.319Z,100622.09
2022-08-26T08:44:31.465Z,100617.81
2022-08-26T08:47:06.155Z,100620.88
2022-08-26T08:49:34.265Z,100600.56
2022-08-26T08:52:10.748Z,100606.53
2022-08-26T08:54:38.192Z,100613.03
2022-08-26T08:57:34.240Z,100617.66
2022-08-26T09:00:14.078Z,100602.56
2022-08-26T09:02:49.671Z,100607.34
2022-08-26T09:05:40.113Z,100600.97
2022-08-26T09:08:21.757Z,100592.34
2022-08-26T09:10:55.228Z,100603.34
2022-08-26T09:13:25.386Z,100600.72
2022-08-26T09:16:15.877Z,100588.00
2022-08-26T09:18:51.557Z,100597.91
2022-08-26T09:21:20.418Z,100590.91
2022-08-26T09:23:51.540Z,100588.06
2022-08-26T09:26:27.237Z,100587.25
2022-08-26T09:29:02.308Z,100588.25
2022-08-26T09:31:32.647Z,100575.63
2022-08-26T09:34:17.492Z,100586.50
2022-08-26T09:36:49.759Z,100586.97
2022-08-26T09:39:28.289Z,100583.66
2022-08-26T09:42:20.533Z,100585.34
2022-08-26T09:45:03.562Z,100575.28
2022-08-26T09:47:33.355Z,100577.06
2022-08-26T09:50:12.480Z,100577.44
2022-08-26T09:52:40.360Z,100574.50
2022-08-26T09:55:22.605Z,100567.16
2022-08-26T09:57:54.072Z,100568.97
2022-08-26T10:01:01.589Z,100565.25
2022-08-26T10:03:32.837Z,100569.84
2022-08-26T10:05:59.438Z,100569.88
2022-08-26T10:08:37.031Z,100556.38
2022-08-26T10:11:34.115Z,100558.97
2022-08-26T10:14:11.123Z,100558.44
2022-08-26T10:17:05.402Z,100553.88
2022-08-26T10:19:55.783Z,100556.69
2022-08-26T10:22:42.180Z,100548.28
2022-08-26T10:25:16.011Z,100544.63
2022-08-26T10:28:07.965Z,100534.88
2022-08-26T10:30:58.298Z,100538.53
2022-08-26T10:33:25.612Z,100532.91
2022-08-26T10:35:55.837Z,100544.53
2022-08-26T10:38:29.497Z,100525.88
2022-08-26T10:41:09.965Z,100533.41
2022-08-26T10:43:52.360Z,100530.91
2022-08-26T10:46:27.228Z,100528.66
2022-08-26T10:49:03.317Z,100524.09
2022-08-26T10:51:38.650Z,100518.97
2022-08-26T10:54:18.629Z,100516.06
2022-08-26T10:56:51.145Z,100513.09
2022-08-26T10:59:55.586Z,100515.16
2022-08-26T11:02:48.353Z,100506.34
2022-08-26T11:05:19.584Z,100503.22
2022-08-26T11:07:51.414Z,100502.50
2022-08-26T11:10:21.409Z,100504.88
2022-08-26T11:13:01.692Z,100497.97
2022-08-26T11:15:29.431Z,100503.03
2022-08-26T11:17:58.065Z,100495.66
2022-08-26T11:20:34.224Z,100510.81
2022-08-26T11:23:13.295Z,100489.28
2022-08-26T11:25:58.954Z,100492.16
2022-08-26T11:28:47.800Z,100496.91
2022-08-26T11:31:26.752Z,100481.91
2022-08-26T11:34:07.136Z,100487.06
2022-08-26T11:36:37.610Z,100489.44
2022-08-26T11:39:55.196Z,100484.09
2022-08-26T11:42:32.535Z,100481.59
2022-08-26T11:45:01.409Z,100480.16
2022-08-26T11:47:31.982Z,100477.72
2022-08-26T11:50:15.307Z,100474.69
2022-08-26T11:52:51.418Z,100469.59
2022-08-26T11:55:18.124Z,100457.03
2022-08-26T11:57:49.806Z,100454.91
2022-08-26T12:00:27.697Z,100455.44
2022-08-26T12:03:02.514Z,100454.66
2022-08-26T12:05:36.398Z,100447.56
2022-08-26T12:08:11.078Z,100447.09
2022-08-26T12:10:38.934Z,100446.47
2022-08-26T12:13:07.220Z,100441.72
2022-08-26T12:15:35.594Z,100432.41
2022-08-26T12:18:20.655Z,100423.66
2022-08-26T12:20:59.246Z,100436.84
2022-08-26T12:23:26.156Z,100432.91
2022-08-26T12:26:02.761Z,100427.63
2022-08-26T12:28:31.151Z,100433.41
2022-08-26T12:31:02.964Z,100422.63
2022-08-26T12:33:30.983Z,100415.94
2022-08-26T12:35:59.390Z,100408.06
2022-08-26T12:38:27.533Z,100411.69
2022-08-26T12:40:55.004Z,100411.16
2022-08-26T12:43:38.863Z,100403.41
2022-08-26T12:46:07.747Z,100402.06
2022-08-26T12:48:38.651Z,100396.06
2022-08-26T12:51:21.527Z,100391.59
2022-08-26T12:53:48.243Z,100391.09
2022-08-26T12:56:22.111Z,100389.00
2022-08-26T12:59:06.294Z,100376.22
2022-08-26T13:01:44.444Z,100374.66
2022-08-26T13:04:48.620Z,100375.78
2022-08-26T13:07:21.325Z,100379.75
2022-08-26T13:09:49.045Z,100373.22
2022-08-26T13:12:29.100Z,100372.72
2022-08-26T13:14:56.150Z,100363.75
2022-08-26T13:17:22.838Z,100365.69
2022-08-26T13:19:49.472Z,100354.88
2022-08-26T13:22:20.146Z,100351.13
2022-08-26T13:24:47.183Z,100339.19
2022-08-26T13:27:14.901Z,100334.31
2022-08-26T13:29:41.664Z,100339.97
2022-08-26T13:32:09.161Z,100343.47
2022-08-26T13:34:37.339Z,100336.25
2022-08-26T13:37:04.709Z,100332.84
2022-08-26T13:39:31.469Z,100324.16
2022-08-26T13:41:58.543Z,100330.56
2022-08-26T13:44:25.167Z,100325.44
2022-08-26T13:46:51.784Z,100328.97
2022-08-26T13:49:18.362Z,100326.16
2022-08-26T13:51:45.187Z,100325.25
2022-08-26T13:54:12.148Z,100325.00
2022-08-26T13:56:39.105Z,100310.25
2022-08-26T13:59:07.382Z,100323.13
2022-08-26T14:01:35.253Z,100321.00
2022-08-26T14:04:03.056Z,100318.81
2022-08-26T14:06:30.213Z,100300.13
2022-08-26T14:08:57.019Z,100315.97
2022-08-26T14:11:24.875Z,100311.06
2022-08-26T14:13:51.480Z,100306.03
2022-08-26T14:16:29.489Z,100304.59
2022-08-26T14:18:56.186Z,100301.28
2022-08-26T14:21:26.824Z,100304.31
2022-08-26T14:23:55.884Z,100295.28
2022-08-26T14:26:28.716Z,100306.38
2022-08-26T14:28:59.731Z,100304.06
2022-08-26T14:31:29.325Z,100310.06
2022-08-26T14:33:59.447Z,100310.31
2022-08-26T14:36:29.125Z,100298.84
2022-08-26T14:38:58.252Z,100295.41
2022-08-26T14:41:25.482Z,100284.34
2022-08-26T14:44:00.147Z,100276.16
2022-08-26T14:46:34.493Z,100293.41
2022-08-26T14:49:05.215Z,100292.59
2022-08-26T14:51:34.604Z,100284.25
2022-08-26T14:54:13.179Z,100281.34
2022-08-26T14:56:45.326Z,100275.34
2022-08-26T14:59:17.789Z,100272.28
2022-08-26T15:01:50.660Z,100276.50
2022-08-26T15:04:17.984Z,100278.16
2022-08-26T15:06:44.999Z,100277.63
2022-08-26T15:09:11.744Z,100267.50
2022-08-26T15:11:38.422Z,100264.78
2022-08-26T15:14:06.353Z,100267.31
2022-08-26T15:16:34.317Z,100271.63
2022-08-26T15:19:04.376Z,100268.75
2022-08-26T15:21:35.750Z,100260.91
2022-08-26T15:24:04.948Z,100269.88
2022-08-26T15:26:33.314Z,100258.53
2022-08-26T15:29:04.358Z,100270.19
2022-08-26T15:31:33.966Z,100268.63
2022-08-26T15:34:04.615Z,100270.63
2022-08-26T15:36:32.692Z,100265.22
2022-08-26T15:39:02.270Z,100261.50
2022-08-26T15:41:34.734Z,100262.44
2022-08-26T15:44:03.416Z,100265.22
2022-08-26T15:46:32.095Z,100264.63
2022-08-26T15:48:58.801Z,100266.13
2022-08-26T15:51:26.992Z,100280.19
2022-08-26T15:53:56.269Z,100279.56
2022-08-26T15:56:28.249Z,100273.66
2022-08-26T15:58:56.341Z,100278.97
2022-08-26T16:01:27.793Z,100269.28
2022-08-26T16:03:56.020Z,100265.06
2022-08-26T16:06:28.236Z,100276.94
2022-08-26T16:08:56.298Z,100262.47
2022-08-26T16:11:23.745Z,100253.25
2022-08-26T16:13:50.904Z,100272.69
2022-08-26T16:16:19.173Z,100273.91
2022-08-26T16:18:45.827Z,100276.56
2022-08-26T16:21:17.385Z,100280.38
2022-08-26T16:23:45.344Z,100267.34
2022-08-26T16:26:17.460Z,100277.44
2022-08-26T16:28:44.483Z,100272.09
2022-08-26T16:31:11.782Z,100276.59
2022-08-26T16:33:38.587Z,100259.81
2022-08-26T16:36:06.902Z,100266.47
2022-08-26T16:38:34.151Z,100269.56
2022-08-26T16:41:01.178Z,100259.78
2022-08-26T16:43:28.203Z,100268.22
2022-08-26T16:45:56.563Z,100268.81
2022-08-26T16:48:23.797Z,100270.09
2022-08-26T16:50:51.256Z,100274.09
2022-08-26T16:53:18.915Z,100269.78
2022-08-26T16:55:47.690Z,100278.69
2022-08-26T16:58:14.791Z,100265.00
2022-08-26T17:00:41.930Z,100253.72
2022-08-26T17:03:10.041Z,100276.75
2022-08-26T17:05:36.882Z,100276.22
2022-08-26T17:08:04.492Z,100281.25
2022-08-26T17:10:31.881Z,100280.97
2022-08-26T17:12:59.377Z,100279.66
2022-08-26T17:15:26.099Z,100272.19
2022-08-26T17:17:54.501Z,100278.31
2022-08-26T17:20:22.982Z,100274.19
2022-08-26T17:22:51.653Z,100275.91
2022-08-26T17:25:28.589Z,100274.00
2022-08-26T17:30:27.861Z,100282.13
2022-08-26T17:32:57.447Z,100278.81
2022-08-26T17:35:24.514Z,100274.69
2022-08-26T17:37:51.992Z,100274.41
2022-08-26T17:40:21.969Z,100272.25
2022-08-26T17:42:51.531Z,100260.69
2022-08-26T17:47:46.868Z,100244.78
2022-08-26T17:50:17.006Z,100266.06
2022-08-26T17:52:44.696Z,100267.53
2022-08-26T17:55:15.174Z,100264.22
2022-08-26T17:57:43.984Z,100265.94
2022-08-26T18:00:23.019Z,100266.25
2022-08-26T18:02:49.601Z,100269.38
2022-08-26T18:05:17.495Z,100268.22
2022-08-26T18:07:44.862Z,100268.22
2022-08-26T18:10:15.495Z,100266.03
2022-08-26T18:12:42.858Z,100266.91
2022-08-26T18:15:11.523Z,100264.19
2022-08-26T18:17:41.782Z,100274.47
2022-08-26T18:20:11.553Z,100266.78
2022-08-26T18:22:38.300Z,100267.41
2022-08-26T18:25:07.588Z,100272.69
2022-08-26T18:27:36.116Z,100280.72
2022-08-26T18:30:11.370Z,100278.53
2022-08-26T18:32:40.673Z,100281.03
2022-08-26T18:35:12.982Z,100284.09
2022-08-26T18:37:55.485Z,100282.44
2022-08-26T18:40:22.703Z,100286.63
2022-08-26T18:42:54.050Z,100292.69
2022-08-26T18:45:22.102Z,100283.31
2022-08-26T18:47:48.676Z,100292.47
2022-08-26T18:50:15.739Z,100273.63
2022-08-26T18:52:43.393Z,100278.03
2022-08-26T18:55:10.344Z,100270.28
2022-08-26T18:57:36.912Z,100279.66
2022-08-26T19:00:08.170Z,100274.69
2022-08-26T19:02:37.392Z,100281.34
2022-08-26T19:05:06.403Z,100278.84
2022-08-26T19:07:36.604Z,100281.06
2022-08-26T19:10:06.430Z,100282.44
2022-08-26T19:12:34.364Z,100289.06
2022-08-26T19:15:02.539Z,100288.78
2022-08-26T19:17:29.161Z,100287.41
2022-08-26T19:19:55.776Z,100287.31
2022-08-26T19:22:22.385Z,100294.22
2022-08-26T19:24:50.160Z,100283.41
2022-08-26T19:27:16.907Z,100289.50
2022-08-26T19:29:43.504Z,100280.38
2022-08-26T19:32:10.171Z,100280.94
2022-08-26T19:34:36.829Z,100285.38
2022-08-26T19:37:03.445Z,100295.88
2022-08-26T19:39:30.043Z,100290.06
2022-08-26T19:41:56.786Z,100298.31
2022-08-26T19:44:42.075Z,100295.53
2022-08-26T19:47:10.025Z,100290.78
2022-08-26T19:49:37.415Z,100288.53
2022-08-26T19:52:05.629Z,100300.44
2022-08-26T19:54:32.357Z,100310.28
2022-08-26T19:56:59.015Z,100302.50
2022-08-26T19:59:25.570Z,100303.31
2022-08-26T20:02:00.454Z,100304.38
2022-08-26T20:04:28.584Z,100298.84
2022-08-26T20:06:57.742Z,100294.97
2022-08-26T20:09:27.504Z,100294.16
2022-08-26T20:11:56.810Z,100298.28
2022-08-26T20:14:23.768Z,100296.94
2022-08-26T20:16:50.418Z,100294.75
2022-08-26T20:19:37.639Z,100295.28
2022-08-26T20:22:05.006Z,100286.56
2022-08-26T20:24:32.562Z,100303.22
2022-08-26T20:26:59.264Z,100293.47
2022-08-26T20:29:26.098Z,100295.09
2022-08-26T20:31:54.601Z,100300.88
2022-08-26T20:34:21.334Z,100301.44
2022-08-26T20:36:49.635Z,100296.50
2022-08-26T20:39:16.771Z,100304.28
2022-08-26T20:41:43.885Z,100300.97
2022-08-26T20:44:10.588Z,100304.78
2022-08-26T20:46:37.272Z,100303.56
2022-08-26T20:49:05.934Z,100286.34
2022-08-26T20:51:35.200Z,100305.41
2022-08-26T20:54:01.793Z,100301.84
2022-08-26T20:56:28.396Z,100307.34
2022-08-26T20:58:58.447Z,100294.28
2022-08-26T21:01:30.506Z,100309.53
2022-08-26T21:03:57.407Z,100305.69
2022-08-26T21:06:24.641Z,100309.53
2022-08-26T21:08:51.356Z,100311.50
2022-08-26T21:11:19.543Z,100320.09
2022-08-26T21:14:04.533Z,100316.50
2022-08-26T21:16:37.533Z,100322.28
2022-08-26T21:19:06.141Z,100312.59
2022-08-26T21:21:33.278Z,100310.06
2022-08-26T21:24:00.042Z,100310.03
2022-08-26T21:26:26.955Z,100315.56
2022-08-26T21:28:53.974Z,100326.28
2022-08-26T21:31:22.880Z,100325.53
2022-08-26T21:33:51.019Z,100324.66
2022-08-26T21:36:18.843Z,100323.13
2022-08-26T21:38:45.883Z,100320.25
2022-08-26T21:41:19.418Z,100311.81
2022-08-26T21:43:47.649Z,100312.91
2022-08-26T21:46:15.746Z,100314.06
2022-08-26T21:48:45.730Z,100309.06
2022-08-26T21:51:17.159Z,100317.13
2022-08-26T21:53:43.748Z,100319.28
2022-08-26T21:56:14.066Z,100311.88
2022-08-26T21:58:41.746Z,100317.69
2022-08-26T22:01:13.557Z,100314.13
2022-08-26T22:03:47.341Z,100312.44
2022-08-26T22:06:20.004Z,100300.22
2022-08-26T22:08:46.888Z,100306.50
2022-08-26T22:11:14.337Z,100300.41
2022-08-26T22:13:42.152Z,100310.34
2022-08-26T22:16:10.006Z,100310.78
2022-08-26T22:18:39.674Z,100302.72
2022-08-26T22:21:12.636Z,100295.47
2022-08-26T22:23:39.760Z,100288.22
2022-08-26T22:26:10.392Z,100293.75
2022-08-26T22:28:37.140Z,100293.97
2022-08-26T22:31:04.012Z,100295.50
2022-08-26T22:33:30.579Z,100295.38
2022-08-26T22:35:57.266Z,100296.72
2022-08-26T22:38:24.003Z,100303.53
2022-08-26T22:40:56.040Z,100298.94
2022-08-26T22:43:24.249Z,100305.53
2022-08-26T22:45:52.858Z,100306.88
2022-08-26T22:48:22.425Z,100302.69
2022-08-26T22:50:50.461Z,100299.19
2022-08-26T22:53:18.269Z,100300.53
2022-08-26T22:55:45.717Z,100300.31
2022-08-26T22:58:15.277Z,100301.94
2022-08-26T23:00:46.501Z,100304.22
2022-08-26T23:03:15.960Z,100315.22
2022-08-26T23:05:43.755Z,100302.47
2022-08-26T23:08:11.502Z,100303.63
2022-08-26T23:10:41.940Z,100302.38
2022-08-26T23:13:12.235Z,100301.75
2022-08-26T23:15:39.673Z,100303.06
2022-08-26T23:18:06.363Z,100296.41
2022-08-26T23:20:33.310Z,100299.16
2022-08-26T23:22:59.889Z,100294.94
2022-08-26T23:25:29.846Z,100304.78
2022-08-26T23:27:57.160Z,100307.97
2022-08-26T23:30:25.780Z,100316.50
2022-08-26T23:32:55.490Z,100311.25
2022-08-26T23:35:22.265Z,100313.94
2022-08-26T23:37:52.435Z,100310.09
2022-08-26T23:40:39.428Z,100307.00
2022-08-26T23:43:08.475Z,100320.50
2022-08-26T23:45:35.654Z,100319.81
2022-08-26T23:48:03.184Z,100307.03
2022-08-26T23:51:03.671Z,100318.59
2022-08-26T23:53:30.243Z,100326.84
2022-08-26T23:55:56.839Z,100330.72
2022-08-26T23:58:23.551Z,100330.38
